sensor_id;sensor_type;location;lat;lon;timestamp;pressure;altitude;pressure_sealevel;temperature;humidity
11678;BME280;5895;41.950;24.372;2022-11-15T00:02:20;87262.81;;;3.13;57.01
11678;BME280;5895;41.950;24.372;2022-11-15T00:04:47;87260.41;;;3.11;56.87
11678;BME280;5895;41.950;24.372;2022-11-15T00:07:14;87262.97;;;3.11;57.02
11678;BME280;5895;41.950;24.372;2022-11-15T00:09:41;87257.84;;;3.11;57.08
11678;BME280;5895;41.950;24.372;2022-11-15T00:12:08;87254.69;;;3.09;57.37
11678;BME280;5895;41.950;24.372;2022-11-15T00:14:37;87249.56;;;3.09;56.97
11678;BME280;5895;41.950;24.372;2022-11-15T00:17:04;87248.75;;;3.09;57.14
11678;BME280;5895;41.950;24.372;2022-11-15T00:19:31;87252.28;;;3.08;57.08
11678;BME280;5895;41.950;24.372;2022-11-15T00:21:58;87244.94;;;3.05;57.05
11678;BME280;5895;41.950;24.372;2022-11-15T00:24:25;87250.25;;;3.03;57.50
11678;BME280;5895;41.950;24.372;2022-11-15T00:26:52;87246.25;;;3.01;57.25
11678;BME280;5895;41.950;24.372;2022-11-15T00:29:19;87243.88;;;2.99;57.19
11678;BME280;5895;41.950;24.372;2022-11-15T00:31:48;87238.75;;;2.99;57.47
11678;BME280;5895;41.950;24.372;2022-11-15T00:34:15;87233.94;;;2.96;57.47
11678;BME280;5895;41.950;24.372;2022-11-15T00:36:42;87235.72;;;2.96;57.61
11678;BME280;5895;41.950;24.372;2022-11-15T00:39:09;87227.59;;;2.92;57.51
11678;BME280;5895;41.950;24.372;2022-11-15T00:41:36;87224.22;;;2.91;57.40
11678;BME280;5895;41.950;24.372;2022-11-15T00:44:03;87227.75;;;2.90;57.39
11678;BME280;5895;41.950;24.372;2022-11-15T00:46:31;87222.81;;;2.89;57.43
11678;BME280;5895;41.950;24.372;2022-11-15T00:48:59;87224.56;;;2.88;57.12
11678;BME280;5895;41.950;24.372;2022-11-15T00:51:26;87219.44;;;2.88;56.92
11678;BME280;5895;41.950;24.372;2022-11-15T00:53:54;87220.44;;;2.87;57.32
11678;BME280;5895;41.950;24.372;2022-11-15T00:56:21;87224.75;;;2.87;57.41
11678;BME280;5895;41.950;24.372;2022-11-15T00:58:48;87226.34;;;2.88;57.65
11678;BME280;5895;41.950;24.372;2022-11-15T01:01:15;87214.50;;;2.87;57.52
11678;BME280;5895;41.950;24.372;2022-11-15T01:03:42;87209.03;;;2.90;57.34
11678;BME280;5895;41.950;24.372;2022-11-15T01:06:11;87215.13;;;2.89;57.75
11678;BME280;5895;41.950;24.372;2022-11-15T01:08:39;87208.59;;;2.86;57.58
11678;BME280;5895;41.950;24.372;2022-11-15T01:11:09;87214.50;;;2.87;57.40
11678;BME280;5895;41.950;24.372;2022-11-15T01:13:38;87213.72;;;2.86;57.75
11678;BME280;5895;41.950;24.372;2022-11-15T01:16:07;87211.94;;;2.87;57.79
11678;BME280;5895;41.950;24.372;2022-11-15T01:18:35;87209.38;;;2.87;57.12
11678;BME280;5895;41.950;24.372;2022-11-15T01:21:07;87199.13;;;2.87;57.96
11678;BME280;5895;41.950;24.372;2022-11-15T01:23:36;87206.44;;;2.90;57.42
11678;BME280;5895;41.950;24.372;2022-11-15T01:26:05;87197.00;;;2.90;58.07
11678;BME280;5895;41.950;24.372;2022-11-15T01:28:34;87198.59;;;2.91;57.96
11678;BME280;5895;41.950;24.372;2022-11-15T01:31:04;87203.56;;;2.93;58.17
11678;BME280;5895;41.950;24.372;2022-11-15T01:33:34;87193.66;;;2.90;58.27
11678;BME280;5895;41.950;24.372;2022-11-15T01:36:03;87200.91;;;2.86;58.37
11678;BME280;5895;41.950;24.372;2022-11-15T01:38:30;87192.06;;;2.89;57.78
11678;BME280;5895;41.950;24.372;2022-11-15T01:40:59;87195.59;;;2.88;58.09
11678;BME280;5895;41.950;24.372;2022-11-15T01:43:28;87194.34;;;2.84;57.42
11678;BME280;5895;41.950;24.372;2022-11-15T01:46:00;87197.88;;;2.83;57.93
11678;BME280;5895;41.950;24.372;2022-11-15T01:48:32;87185.06;;;2.83;58.81
11678;BME280;5895;41.950;24.372;2022-11-15T01:51:01;87187.97;;;2.80;58.34
11678;BME280;5895;41.950;24.372;2022-11-15T01:53:30;87184.78;;;2.78;57.93
11678;BME280;5895;41.950;24.372;2022-11-15T01:56:02;87187.06;;;2.73;58.72
11678;BME280;5895;41.950;24.372;2022-11-15T01:58:31;87189.34;;;2.68;57.82
11678;BME280;5895;41.950;24.372;2022-11-15T02:00:59;87180.59;;;2.62;58.01
11678;BME280;5895;41.950;24.372;2022-11-15T02:03:31;87178.53;;;2.57;58.84
11678;BME280;5895;41.950;24.372;2022-11-15T02:06:02;87179.22;;;2.51;58.07
11678;BME280;5895;41.950;24.372;2022-11-15T02:08:30;87183.13;;;2.47;58.01
11678;BME280;5895;41.950;24.372;2022-11-15T02:10:57;87179.13;;;2.45;58.59
11678;BME280;5895;41.950;24.372;2022-11-15T02:13:26;87178.66;;;2.41;58.24
11678;BME280;5895;41.950;24.372;2022-11-15T02:16:03;87179.03;;;2.38;58.52
11678;BME280;5895;41.950;24.372;2022-11-15T02:18:39;87182.19;;;2.40;58.14
11678;BME280;5895;41.950;24.372;2022-11-15T02:21:17;87168.44;;;2.41;58.61
11678;BME280;5895;41.950;24.372;2022-11-15T02:24:24;87165.22;;;2.47;60.20
11678;BME280;5895;41.950;24.372;2022-11-15T02:27:21;87171.56;;;2.51;59.99
11678;BME280;5895;41.950;24.372;2022-11-15T02:33:00;87169.63;;;2.53;59.33
11678;BME280;5895;41.950;24.372;2022-11-15T02:35:38;87172.53;;;2.50;59.30
11678;BME280;5895;41.950;24.372;2022-11-15T02:38:17;87167.75;;;2.47;59.23
11678;BME280;5895;41.950;24.372;2022-11-15T02:40:52;87172.59;;;2.42;58.98
11678;BME280;5895;41.950;24.372;2022-11-15T02:43:26;87168.78;;;2.38;59.05
11678;BME280;5895;41.950;24.372;2022-11-15T02:46:17;87168.00;;;2.37;58.84
11678;BME280;5895;41.950;24.372;2022-11-15T02:48:48;87160.50;;;2.36;58.65
11678;BME280;5895;41.950;24.372;2022-11-15T02:51:16;87158.88;;;2.35;58.24
11678;BME280;5895;41.950;24.372;2022-11-15T02:53:44;87159.56;;;2.29;58.27
11678;BME280;5895;41.950;24.372;2022-11-15T02:56:11;87160.44;;;2.21;57.62
11678;BME280;5895;41.950;24.372;2022-11-15T02:58:51;87168.69;;;2.08;58.67
11678;BME280;5895;41.950;24.372;2022-11-15T03:01:34;87174.47;;;2.02;59.18
11678;BME280;5895;41.950;24.372;2022-11-15T03:04:14;87174.63;;;2.01;60.20
11678;BME280;5895;41.950;24.372;2022-11-15T03:06:49;87169.06;;;1.97;59.36
11678;BME280;5895;41.950;24.372;2022-11-15T03:09:28;87160.13;;;1.93;60.09
11678;BME280;5895;41.950;24.372;2022-11-15T03:12:04;87172.13;;;1.93;59.76
11678;BME280;5895;41.950;24.372;2022-11-15T03:14:35;87167.81;;;1.93;58.82
11678;BME280;5895;41.950;24.372;2022-11-15T03:17:09;87169.41;;;1.94;60.18
11678;BME280;5895;41.950;24.372;2022-11-15T03:19:44;87168.44;;;1.95;60.00
11678;BME280;5895;41.950;24.372;2022-11-15T03:22:15;87164.75;;;1.98;59.18
11678;BME280;5895;41.950;24.372;2022-11-15T03:24:44;87165.53;;;1.98;58.65
11678;BME280;5895;41.950;24.372;2022-11-15T03:27:14;87158.97;;;1.96;58.73
11678;BME280;5895;41.950;24.372;2022-11-15T03:29:45;87161.91;;;1.93;59.37
11678;BME280;5895;41.950;24.372;2022-11-15T03:32:15;87157.28;;;1.88;58.88
11678;BME280;5895;41.950;24.372;2022-11-15T03:34:49;87160.81;;;1.87;59.71
11678;BME280;5895;41.950;24.372;2022-11-15T03:37:21;87159.53;;;1.91;59.40
11678;BME280;5895;41.950;24.372;2022-11-15T03:39:49;87148.94;;;1.94;59.20
11678;BME280;5895;41.950;24.372;2022-11-15T03:42:21;87145.06;;;1.98;59.33
11678;BME280;5895;41.950;24.372;2022-11-15T03:44:54;87148.91;;;2.02;59.79
11678;BME280;5895;41.950;24.372;2022-11-15T03:47:28;87148.53;;;2.05;59.09
11678;BME280;5895;41.950;24.372;2022-11-15T03:50:01;87149.69;;;2.03;59.10
11678;BME280;5895;41.950;24.372;2022-11-15T03:52:32;87139.97;;;1.98;59.13
11678;BME280;5895;41.950;24.372;2022-11-15T03:55:02;87137.72;;;1.95;59.41
11678;BME280;5895;41.950;24.372;2022-11-15T03:57:30;87144.00;;;1.93;59.54
11678;BME280;5895;41.950;24.372;2022-11-15T03:59:57;87142.41;;;1.92;59.73
11678;BME280;5895;41.950;24.372;2022-11-15T04:02:24;87136.50;;;1.91;59.83
11678;BME280;5895;41.950;24.372;2022-11-15T04:04:51;87132.03;;;1.85;58.92
11678;BME280;5895;41.950;24.372;2022-11-15T04:07:19;87135.91;;;1.81;58.95
11678;BME280;5895;41.950;24.372;2022-11-15T04:09:46;87133.50;;;1.79;58.90
11678;BME280;5895;41.950;24.372;2022-11-15T04:12:29;87137.50;;;1.82;59.18
11678;BME280;5895;41.950;24.372;2022-11-15T04:15:00;87139.56;;;1.87;58.99
11678;BME280;5895;41.950;24.372;2022-11-15T04:17:38;87131.69;;;1.88;58.87
11678;BME280;5895;41.950;24.372;2022-11-15T04:20:08;87136.63;;;1.90;59.61
11678;BME280;5895;41.950;24.372;2022-11-15T04:22:55;87130.41;;;1.92;59.19
11678;BME280;5895;41.950;24.372;2022-11-15T04:25:40;87129.44;;;1.93;59.46
11678;BME280;5895;41.950;24.372;2022-11-15T04:28:08;87126.88;;;1.93;59.53
11678;BME280;5895;41.950;24.372;2022-11-15T04:30:35;87119.88;;;1.87;59.73
11678;BME280;5895;41.950;24.372;2022-11-15T04:33:02;87120.00;;;1.94;59.49
11678;BME280;5895;41.950;24.372;2022-11-15T04:35:30;87122.09;;;1.90;59.48
11678;BME280;5895;41.950;24.372;2022-11-15T04:37:58;87133.28;;;1.89;59.82
11678;BME280;5895;41.950;24.372;2022-11-15T04:40:26;87125.00;;;1.87;59.58
11678;BME280;5895;41.950;24.372;2022-11-15T04:42:53;87130.44;;;1.84;59.90
11678;BME280;5895;41.950;24.372;2022-11-15T04:45:20;87122.16;;;1.82;59.85
11678;BME280;5895;41.950;24.372;2022-11-15T04:47:47;87119.59;;;1.82;59.72
11678;BME280;5895;41.950;24.372;2022-11-15T04:50:15;87113.50;;;1.83;59.92
11678;BME280;5895;41.950;24.372;2022-11-15T04:52:48;87121.19;;;1.83;60.16
11678;BME280;5895;41.950;24.372;2022-11-15T04:55:17;87120.56;;;1.81;59.74
11678;BME280;5895;41.950;24.372;2022-11-15T04:57:45;87124.88;;;1.80;60.27
11678;BME280;5895;41.950;24.372;2022-11-15T05:00:14;87130.94;;;1.79;60.33
11678;BME280;5895;41.950;24.372;2022-11-15T05:02:42;87124.88;;;1.80;59.80
11678;BME280;5895;41.950;24.372;2022-11-15T05:05:27;87118.97;;;1.80;60.06
11678;BME280;5895;41.950;24.372;2022-11-15T05:07:54;87117.53;;;1.77;59.55
11678;BME280;5895;41.950;24.372;2022-11-15T05:10:23;87122.03;;;1.75;60.30
11678;BME280;5895;41.950;24.372;2022-11-15T05:12:50;87120.28;;;1.76;60.60
11678;BME280;5895;41.950;24.372;2022-11-15T05:15:17;87121.06;;;1.76;60.46
11678;BME280;5895;41.950;24.372;2022-11-15T05:17:44;87121.06;;;1.76;60.18
11678;BME280;5895;41.950;24.372;2022-11-15T05:20:11;87125.72;;;1.73;60.05
11678;BME280;5895;41.950;24.372;2022-11-15T05:22:39;87113.91;;;1.72;60.29
11678;BME280;5895;41.950;24.372;2022-11-15T05:25:07;87118.41;;;1.70;59.91
11678;BME280;5895;41.950;24.372;2022-11-15T05:27:35;87115.19;;;1.68;60.64
11678;BME280;5895;41.950;24.372;2022-11-15T05:30:03;87112.81;;;1.66;59.83
11678;BME280;5895;41.950;24.372;2022-11-15T05:32:30;87114.25;;;1.69;60.10
11678;BME280;5895;41.950;24.372;2022-11-15T05:34:57;87120.97;;;1.70;59.99
11678;BME280;5895;41.950;24.372;2022-11-15T05:37:24;87120.59;;;1.73;59.97
11678;BME280;5895;41.950;24.372;2022-11-15T05:39:51;87115.34;;;1.74;59.85
11678;BME280;5895;41.950;24.372;2022-11-15T05:42:18;87122.84;;;1.76;60.53
11678;BME280;5895;41.950;24.372;2022-11-15T05:44:48;87128.56;;;1.78;60.81
11678;BME280;5895;41.950;24.372;2022-11-15T05:47:18;87134.31;;;1.80;60.22
11678;BME280;5895;41.950;24.372;2022-11-15T05:49:47;87127.88;;;1.84;60.34
11678;BME280;5895;41.950;24.372;2022-11-15T05:52:17;87127.56;;;1.87;60.62
11678;BME280;5895;41.950;24.372;2022-11-15T05:54:45;87128.34;;;1.88;60.62
11678;BME280;5895;41.950;24.372;2022-11-15T05:57:13;87130.56;;;1.91;60.48
11678;BME280;5895;41.950;24.372;2022-11-15T05:59:40;87131.81;;;1.95;59.76
11678;BME280;5895;41.950;24.372;2022-11-15T06:02:10;87129.06;;;1.96;60.04
11678;BME280;5895;41.950;24.372;2022-11-15T06:04:38;87128.75;;;1.99;60.08
11678;BME280;5895;41.950;24.372;2022-11-15T06:07:05;87131.91;;;2.01;60.41
11678;BME280;5895;41.950;24.372;2022-11-15T06:09:32;87128.06;;;2.05;60.02
11678;BME280;5895;41.950;24.372;2022-11-15T06:11:59;87126.94;;;2.08;60.43
11678;BME280;5895;41.950;24.372;2022-11-15T06:14:26;87125.78;;;2.10;60.71
11678;BME280;5895;41.950;24.372;2022-11-15T06:16:53;87128.63;;;2.16;60.36
11678;BME280;5895;41.950;24.372;2022-11-15T06:19:22;87122.03;;;2.21;60.40
11678;BME280;5895;41.950;24.372;2022-11-15T06:21:49;87128.22;;;2.27;60.66
11678;BME280;5895;41.950;24.372;2022-11-15T06:24:16;87133.63;;;2.32;60.19
11678;BME280;5895;41.950;24.372;2022-11-15T06:26:43;87132.94;;;2.38;60.78
11678;BME280;5895;41.950;24.372;2022-11-15T06:29:10;87130.66;;;2.43;60.38
11678;BME280;5895;41.950;24.372;2022-11-15T06:31:37;87132.72;;;2.48;60.41
11678;BME280;5895;41.950;24.372;2022-11-15T06:34:04;87139.25;;;2.50;60.83
11678;BME280;5895;41.950;24.372;2022-11-15T06:36:34;87134.22;;;2.57;60.20
11678;BME280;5895;41.950;24.372;2022-11-15T06:39:01;87130.72;;;2.73;60.50
11678;BME280;5895;41.950;24.372;2022-11-15T06:41:28;87139.41;;;3.01;59.87
11678;BME280;5895;41.950;24.372;2022-11-15T06:43:56;87134.25;;;3.31;59.29
11678;BME280;5895;41.950;24.372;2022-11-15T06:46:24;87132.66;;;3.59;58.92
11678;BME280;5895;41.950;24.372;2022-11-15T06:48:51;87132.59;;;3.89;58.60
11678;BME280;5895;41.950;24.372;2022-11-15T06:51:19;87125.78;;;4.17;58.38
11678;BME280;5895;41.950;24.372;2022-11-15T06:53:47;87124.44;;;4.43;58.25
11678;BME280;5895;41.950;24.372;2022-11-15T06:56:14;87127.41;;;4.68;57.23
11678;BME280;5895;41.950;24.372;2022-11-15T06:58:42;87122.66;;;4.93;56.63
11678;BME280;5895;41.950;24.372;2022-11-15T07:01:10;87121.84;;;5.20;57.18
11678;BME280;5895;41.950;24.372;2022-11-15T07:03:39;87117.44;;;5.42;57.14
11678;BME280;5895;41.950;24.372;2022-11-15T07:06:07;87124.06;;;5.65;57.08
11678;BME280;5895;41.950;24.372;2022-11-15T07:08:35;87114.25;;;5.88;56.85
11678;BME280;5895;41.950;24.372;2022-11-15T07:11:06;87120.31;;;6.15;56.35
11678;BME280;5895;41.950;24.372;2022-11-15T07:13:34;87118.03;;;6.40;56.99
11678;BME280;5895;41.950;24.372;2022-11-15T07:16:03;87116.47;;;6.66;56.76
11678;BME280;5895;41.950;24.372;2022-11-15T07:18:30;87114.28;;;6.96;56.42
11678;BME280;5895;41.950;24.372;2022-11-15T07:21:01;87117.66;;;7.16;58.23
11678;BME280;5895;41.950;24.372;2022-11-15T07:23:28;87109.47;;;7.46;55.53
11678;BME280;5895;41.950;24.372;2022-11-15T07:25:57;87104.44;;;7.77;57.66
11678;BME280;5895;41.950;24.372;2022-11-15T07:28:26;87107.53;;;8.06;55.09
11678;BME280;5895;41.950;24.372;2022-11-15T07:30:54;87101.44;;;8.38;54.23
11678;BME280;5895;41.950;24.372;2022-11-15T07:33:21;87104.06;;;8.70;55.24
11678;BME280;5895;41.950;24.372;2022-11-15T07:35:48;87105.88;;;8.94;54.60
11678;BME280;5895;41.950;24.372;2022-11-15T07:38:16;87096.91;;;9.22;54.80
11678;BME280;5895;41.950;24.372;2022-11-15T07:40:45;87104.03;;;9.51;53.55
11678;BME280;5895;41.950;24.372;2022-11-15T07:43:13;87097.19;;;9.75;53.92
11678;BME280;5895;41.950;24.372;2022-11-15T07:45:44;87103.50;;;10.04;55.12
11678;BME280;5895;41.950;24.372;2022-11-15T07:48:11;87106.25;;;10.28;53.20
11678;BME280;5895;41.950;24.372;2022-11-15T07:50:40;87096.88;;;10.45;53.22
11678;BME280;5895;41.950;24.372;2022-11-15T07:53:08;87099.97;;;10.66;52.84
11678;BME280;5895;41.950;24.372;2022-11-15T07:55:36;87105.38;;;10.94;52.58
11678;BME280;5895;41.950;24.372;2022-11-15T07:58:05;87095.50;;;11.15;52.67
11678;BME280;5895;41.950;24.372;2022-11-15T08:00:33;87101.19;;;11.35;53.28
11678;BME280;5895;41.950;24.372;2022-11-15T08:03:06;87101.44;;;11.69;53.65
11678;BME280;5895;41.950;24.372;2022-11-15T08:05:33;87092.22;;;11.96;52.37
11678;BME280;5895;41.950;24.372;2022-11-15T08:08:01;87094.09;;;12.24;51.88
11678;BME280;5895;41.950;24.372;2022-11-15T08:10:28;87088.84;;;12.48;50.99
11678;BME280;5895;41.950;24.372;2022-11-15T08:12:59;87087.97;;;12.70;49.63
11678;BME280;5895;41.950;24.372;2022-11-15T08:15:27;87083.16;;;12.91;50.27
11678;BME280;5895;41.950;24.372;2022-11-15T08:17:55;87080.88;;;13.11;49.51
11678;BME280;5895;41.950;24.372;2022-11-15T08:20:25;87081.28;;;13.32;49.45
11678;BME280;5895;41.950;24.372;2022-11-15T08:22:55;87079.22;;;13.50;49.74
11678;BME280;5895;41.950;24.372;2022-11-15T08:25:22;87076.00;;;13.60;48.99
11678;BME280;5895;41.950;24.372;2022-11-15T08:27:52;87085.63;;;13.76;48.23
11678;BME280;5895;41.950;24.372;2022-11-15T08:30:19;87071.06;;;13.97;48.14
11678;BME280;5895;41.950;24.372;2022-11-15T08:32:47;87078.91;;;14.19;47.97
11678;BME280;5895;41.950;24.372;2022-11-15T08:35:14;87083.06;;;14.15;47.81
11678;BME280;5895;41.950;24.372;2022-11-15T08:37:42;87072.63;;;14.15;48.28
11678;BME280;5895;41.950;24.372;2022-11-15T08:40:10;87081.31;;;14.21;48.26
11678;BME280;5895;41.950;24.372;2022-11-15T08:42:38;87075.97;;;14.33;47.97
11678;BME280;5895;41.950;24.372;2022-11-15T08:45:07;87082.50;;;14.52;48.47
11678;BME280;5895;41.950;24.372;2022-11-15T08:47:35;87069.03;;;14.60;47.19
11678;BME280;5895;41.950;24.372;2022-11-15T08:50:02;87070.19;;;14.69;47.82
11678;BME280;5895;41.950;24.372;2022-11-15T08:52:29;87074.00;;;14.84;47.34
11678;BME280;5895;41.950;24.372;2022-11-15T08:54:58;87074.97;;;14.99;47.12
11678;BME280;5895;41.950;24.372;2022-11-15T08:57:28;87064.66;;;15.15;45.03
11678;BME280;5895;41.950;24.372;2022-11-15T08:59:56;87061.59;;;14.96;47.18
11678;BME280;5895;41.950;24.372;2022-11-15T09:02:23;87062.09;;;14.93;47.20
11678;BME280;5895;41.950;24.372;2022-11-15T09:04:50;87057.75;;;15.03;47.29
11678;BME280;5895;41.950;24.372;2022-11-15T09:07:17;87049.38;;;15.28;47.51
11678;BME280;5895;41.950;24.372;2022-11-15T09:09:44;87050.06;;;15.46;46.99
11678;BME280;5895;41.950;24.372;2022-11-15T09:12:13;87046.13;;;15.75;46.61
11678;BME280;5895;41.950;24.372;2022-11-15T09:14:40;87036.91;;;16.05;46.36
11678;BME280;5895;41.950;24.372;2022-11-15T09:17:08;87030.28;;;16.34;46.21
11678;BME280;5895;41.950;24.372;2022-11-15T09:19:35;87026.72;;;16.61;45.75
11678;BME280;5895;41.950;24.372;2022-11-15T09:22:05;87030.50;;;16.75;43.64
11678;BME280;5895;41.950;24.372;2022-11-15T09:24:33;87025.81;;;16.87;45.66
11678;BME280;5895;41.950;24.372;2022-11-15T09:27:00;87026.34;;;16.89;45.66
11678;BME280;5895;41.950;24.372;2022-11-15T09:29:28;87014.34;;;17.09;45.13
11678;BME280;5895;41.950;24.372;2022-11-15T09:31:56;87015.97;;;17.40;46.13
11678;BME280;5895;41.950;24.372;2022-11-15T09:34:23;87023.84;;;17.56;45.15
11678;BME280;5895;41.950;24.372;2022-11-15T09:36:50;87021.00;;;17.78;45.40
11678;BME280;5895;41.950;24.372;2022-11-15T09:39:17;87009.72;;;18.08;45.37
11678;BME280;5895;41.950;24.372;2022-11-15T09:41:52;87016.47;;;18.39;41.15
11678;BME280;5895;41.950;24.372;2022-11-15T09:44:36;87004.84;;;18.56;39.60
11678;BME280;5895;41.950;24.372;2022-11-15T09:47:15;87004.34;;;18.69;42.32
11678;BME280;5895;41.950;24.372;2022-11-15T09:49:51;86998.75;;;18.86;41.88
11678;BME280;5895;41.950;24.372;2022-11-15T09:52:20;87000.50;;;19.00;43.69
11678;BME280;5895;41.950;24.372;2022-11-15T09:54:50;87004.13;;;19.15;43.76
11678;BME280;5895;41.950;24.372;2022-11-15T09:57:21;86997.44;;;19.38;43.78
11678;BME280;5895;41.950;24.372;2022-11-15T10:00:00;86999.13;;;19.58;38.46
11678;BME280;5895;41.950;24.372;2022-11-15T10:02:43;86990.88;;;19.74;37.61
11678;BME280;5895;41.950;24.372;2022-11-15T10:05:16;86987.38;;;19.84;42.63
11678;BME280;5895;41.950;24.372;2022-11-15T10:07:50;86987.56;;;19.98;40.25
11678;BME280;5895;41.950;24.372;2022-11-15T10:10:28;86983.94;;;20.18;42.05
11678;BME280;5895;41.950;24.372;2022-11-15T10:12:57;86982.75;;;20.34;43.61
11678;BME280;5895;41.950;24.372;2022-11-15T10:15:27;86973.66;;;20.50;43.05
11678;BME280;5895;41.950;24.372;2022-11-15T10:18:15;86974.78;;;20.68;36.61
11678;BME280;5895;41.950;24.372;2022-11-15T10:20:47;86970.72;;;20.76;40.17
11678;BME280;5895;41.950;24.372;2022-11-15T10:23:17;86975.53;;;20.93;42.67
11678;BME280;5895;41.950;24.372;2022-11-15T10:25:46;86969.59;;;21.06;42.67
11678;BME280;5895;41.950;24.372;2022-11-15T10:28:16;86970.38;;;21.25;41.60
11678;BME280;5895;41.950;24.372;2022-11-15T10:30:47;86964.31;;;21.25;41.50
11678;BME280;5895;41.950;24.372;2022-11-15T10:33:22;86961.50;;;21.40;37.82
11678;BME280;5895;41.950;24.372;2022-11-15T10:36:14;86950.16;;;21.58;32.51
11678;BME280;5895;41.950;24.372;2022-11-15T10:38:56;86949.38;;;21.58;33.91
11678;BME280;5895;41.950;24.372;2022-11-15T10:41:39;86949.00;;;21.64;35.98
11678;BME280;5895;41.950;24.372;2022-11-15T10:44:22;86943.44;;;21.85;36.15
11678;BME280;5895;41.950;24.372;2022-11-15T10:47:25;86940.72;;;22.04;34.89
11678;BME280;5895;41.950;24.372;2022-11-15T10:50:01;86935.53;;;22.17;38.13
11678;BME280;5895;41.950;24.372;2022-11-15T10:52:30;86931.03;;;22.18;41.62
11678;BME280;5895;41.950;24.372;2022-11-15T10:55:02;86924.75;;;22.28;40.44
11678;BME280;5895;41.950;24.372;2022-11-15T10:57:33;86918.50;;;22.37;40.10
11678;BME280;5895;41.950;24.372;2022-11-15T11:00:05;86917.56;;;22.47;40.45
11678;BME280;5895;41.950;24.372;2022-11-15T11:02:36;86914.81;;;22.52;37.78
11678;BME280;5895;41.950;24.372;2022-11-15T11:05:06;86914.63;;;22.62;40.64
11678;BME280;5895;41.950;24.372;2022-11-15T11:07:35;86914.41;;;22.73;40.27
11678;BME280;5895;41.950;24.372;2022-11-15T11:10:05;86910.50;;;22.84;40.94
11678;BME280;5895;41.950;24.372;2022-11-15T11:12:33;86904.44;;;22.97;40.82
11678;BME280;5895;41.950;24.372;2022-11-15T11:15:09;86911.19;;;23.03;37.27
11678;BME280;5895;41.950;24.372;2022-11-15T11:17:58;86914.44;;;23.14;33.87
11678;BME280;5895;41.950;24.372;2022-11-15T11:20:35;86903.22;;;23.17;37.78
11678;BME280;5895;41.950;24.372;2022-11-15T11:23:16;86901.25;;;23.22;35.19
11678;BME280;5895;41.950;24.372;2022-11-15T11:25:55;86901.09;;;23.19;36.54
11678;BME280;5895;41.950;24.372;2022-11-15T11:28:36;86891.09;;;23.16;36.10
11678;BME280;5895;41.950;24.372;2022-11-15T11:31:17;86896.97;;;23.13;36.33
11678;BME280;5895;41.950;24.372;2022-11-15T11:33:56;86898.84;;;23.12;38.08
11678;BME280;5895;41.950;24.372;2022-11-15T11:36:36;86889.31;;;23.11;39.30
11678;BME280;5895;41.950;24.372;2022-11-15T11:39:19;86888.84;;;23.09;34.83
11678;BME280;5895;41.950;24.372;2022-11-15T11:41:56;86891.00;;;23.07;37.15
11678;BME280;5895;41.950;24.372;2022-11-15T11:44:38;86887.59;;;23.07;35.52
11678;BME280;5895;41.950;24.372;2022-11-15T11:47:11;86883.84;;;23.08;41.36
11678;BME280;5895;41.950;24.372;2022-11-15T11:49:44;86878.72;;;23.11;37.80
11678;BME280;5895;41.950;24.372;2022-11-15T11:52:17;86879.50;;;23.12;39.15
11678;BME280;5895;41.950;24.372;2022-11-15T11:54:54;86880.91;;;23.09;35.13
11678;BME280;5895;41.950;24.372;2022-11-15T11:57:33;86877.69;;;23.12;36.86
11678;BME280;5895;41.950;24.372;2022-11-15T12:00:12;86876.59;;;23.13;40.05
11678;BME280;5895;41.950;24.372;2022-11-15T12:02:43;86870.22;;;23.14;40.77
11678;BME280;5895;41.950;24.372;2022-11-15T12:05:18;86867.44;;;23.19;37.35
11678;BME280;5895;41.950;24.372;2022-11-15T12:07:47;86872.66;;;23.25;41.16
11678;BME280;5895;41.950;24.372;2022-11-15T12:10:21;86865.78;;;23.23;38.37
11678;BME280;5895;41.950;24.372;2022-11-15T12:12:56;86868.28;;;23.29;36.57
11678;BME280;5895;41.950;24.372;2022-11-15T12:15:28;86863.50;;;23.31;39.26
11678;BME280;5895;41.950;24.372;2022-11-15T12:17:58;86857.13;;;23.32;40.82
11678;BME280;5895;41.950;24.372;2022-11-15T12:20:34;86850.75;;;23.33;37.58
11678;BME280;5895;41.950;24.372;2022-11-15T12:23:06;86840.75;;;23.30;38.96
11678;BME280;5895;41.950;24.372;2022-11-15T12:25:45;86844.66;;;23.32;33.97
11678;BME280;5895;41.950;24.372;2022-11-15T12:28:17;86847.13;;;23.29;38.51
11678;BME280;5895;41.950;24.372;2022-11-15T12:30:50;86829.66;;;23.28;34.84
11678;BME280;5895;41.950;24.372;2022-11-15T12:33:34;86840.25;;;23.28;33.30
11678;BME280;5895;41.950;24.372;2022-11-15T12:36:05;86844.00;;;23.27;40.18
11678;BME280;5895;41.950;24.372;2022-11-15T12:38:52;86842.78;;;23.33;33.02
11678;BME280;5895;41.950;24.372;2022-11-15T12:41:22;86842.06;;;23.18;41.07
11678;BME280;5895;41.950;24.372;2022-11-15T12:43:50;86835.66;;;22.97;41.24
11678;BME280;5895;41.950;24.372;2022-11-15T12:49:44;86839.28;;;23.01;33.46
11678;BME280;5895;41.950;24.372;2022-11-15T12:52:13;86831.34;;;23.01;39.08
11678;BME280;5895;41.950;24.372;2022-11-15T12:57:49;86829.38;;;22.93;41.44
11678;BME280;5895;41.950;24.372;2022-11-15T13:00:44;86825.25;;;22.87;33.77
11678;BME280;5895;41.950;24.372;2022-11-15T13:03:28;86815.66;;;22.91;34.51
11678;BME280;5895;41.950;24.372;2022-11-15T13:06:09;;;;22.85;
11678;BME280;5895;41.950;24.372;2022-11-15T13:08:50;86820.53;;;22.84;38.09
11678;BME280;5895;41.950;24.372;2022-11-15T13:14:48;86812.94;;;22.68;34.73
11678;BME280;5895;41.950;24.372;2022-11-15T13:17:33;86810.56;;;22.67;35.42
11678;BME280;5895;41.950;24.372;2022-11-15T13:20:23;86808.44;;;22.69;34.59
11678;BME280;5895;41.950;24.372;2022-11-15T13:22:59;86808.13;;;22.70;41.29
11678;BME280;5895;41.950;24.372;2022-11-15T13:25:57;86803.91;;;22.69;34.23
11678;BME280;5895;41.950;24.372;2022-11-15T13:28:33;86803.13;;;22.69;41.10
11678;BME280;5895;41.950;24.372;2022-11-15T13:31:01;86804.41;;;22.71;41.05
11678;BME280;5895;41.950;24.372;2022-11-15T13:33:32;86803.13;;;22.69;39.69
11678;BME280;5895;41.950;24.372;2022-11-15T13:36:02;86795.50;;;22.67;41.11
11678;BME280;5895;41.950;24.372;2022-11-15T13:38:32;86793.91;;;22.66;40.92
11678;BME280;5895;41.950;24.372;2022-11-15T13:41:18;86798.38;;;22.57;33.86
11678;BME280;5895;41.950;24.372;2022-11-15T13:43:46;86803.03;;;22.60;41.01